createdAt,value
2018-03-17T00:01:40.495Z,-2.00
2018-03-17T00:03:23.612Z,-2.00
2018-03-17T00:05:06.734Z,-2.10
2018-03-17T00:06:49.893Z,-2.10
2018-03-17T00:08:33.076Z,-2.10
2018-03-17T00:10:16.955Z,-2.10
2018-03-17T00:12:00.093Z,-2.20
2018-03-17T00:13:43.246Z,-2.20
2018-03-17T00:15:27.125Z,-2.20
2018-03-17T00:17:10.263Z,-2.20
2018-03-17T00:18:53.413Z,-2.30
2018-03-17T00:20:37.301Z,-2.40
2018-03-17T00:22:20.449Z,-2.40
2018-03-17T00:24:03.588Z,-2.40
2018-03-17T00:25:47.491Z,-2.40
2018-03-17T00:27:30.641Z,-2.40
2018-03-17T00:29:14.541Z,-2.40
2018-03-17T00:30:57.789Z,-2.40
2018-03-17T00:32:41.701Z,-2.40
2018-03-17T00:34:24.949Z,-2.40
2018-03-17T00:36:08.838Z,-2.40
2018-03-17T00:37:51.995Z,-2.50
2018-03-17T00:39:35.901Z,-2.50
2018-03-17T00:41:19.028Z,-2.50
2018-03-17T00:43:02.254Z,-2.50
2018-03-17T00:44:45.377Z,-2.50
2018-03-17T00:46:28.518Z,-2.50
2018-03-17T00:48:11.693Z,-2.60
2018-03-17T00:49:54.839Z,-2.60
2018-03-17T00:51:38.724Z,-2.70
2018-03-17T00:53:21.892Z,-2.70
2018-03-17T00:55:05.779Z,-2.70
2018-03-17T00:56:48.896Z,-2.70
2018-03-17T00:58:32.013Z,-2.70
2018-03-17T01:00:15.140Z,-2.80
2018-03-17T01:01:58.288Z,-2.70
2018-03-17T01:03:42.184Z,-2.80
2018-03-17T01:05:25.307Z,-2.80
2018-03-17T01:07:08.442Z,-2.70
2018-03-17T01:08:51.641Z,-2.70
2018-03-17T01:10:34.757Z,-2.70
2018-03-17T01:12:17.985Z,-2.80
2018-03-17T01:14:01.102Z,-2.80
2018-03-17T01:15:44.212Z,-2.80
2018-03-17T01:17:27.383Z,-2.80
2018-03-17T01:19:10.565Z,-2.80
2018-03-17T01:20:53.619Z,-2.80
2018-03-17T01:22:36.773Z,-2.90
2018-03-17T01:24:20.007Z,-2.90
2018-03-17T01:26:04.640Z,-3.00
2018-03-17T01:27:47.773Z,-2.90
2018-03-17T01:29:31.021Z,-2.90
2018-03-17T01:31:14.924Z,-2.90
2018-03-17T01:32:58.076Z,-2.90
2018-03-17T01:34:41.972Z,-3.00
2018-03-17T01:36:25.211Z,-3.10
2018-03-17T01:38:09.108Z,-3.10
2018-03-17T01:39:52.211Z,-3.10
2018-03-17T01:41:35.333Z,-3.10
2018-03-17T01:43:18.460Z,-3.20
2018-03-17T01:45:01.603Z,-3.20
2018-03-17T01:46:44.723Z,-3.20
2018-03-17T01:48:27.872Z,-3.20
2018-03-17T01:50:11.042Z,-3.30
2018-03-17T01:51:54.244Z,-3.30
2018-03-17T01:53:37.368Z,-3.30
2018-03-17T01:55:20.483Z,-3.40
2018-03-17T01:57:03.626Z,-3.40
2018-03-17T01:58:46.765Z,-3.40
2018-03-17T02:00:30.650Z,-3.40
2018-03-17T02:02:13.795Z,-3.40
2018-03-17T02:03:56.931Z,-3.40
2018-03-17T02:05:40.824Z,-3.50
2018-03-17T02:07:23.932Z,-3.50
2018-03-17T02:09:07.122Z,-3.50
2018-03-17T02:10:51.116Z,-3.50
2018-03-17T02:12:34.237Z,-3.60
2018-03-17T02:14:18.144Z,-3.60
2018-03-17T02:16:01.252Z,-3.60
2018-03-17T02:17:44.380Z,-3.60
2018-03-17T02:19:27.502Z,-3.60
2018-03-17T02:21:11.398Z,-3.50
2018-03-17T02:22:54.503Z,-3.60
2018-03-17T02:24:37.652Z,-3.50
2018-03-17T02:26:20.785Z,-3.50
2018-03-17T02:28:03.883Z,-3.60
2018-03-17T02:29:47.122Z,-3.60
2018-03-17T02:31:30.339Z,-3.50
2018-03-17T02:33:13.561Z,-3.50
2018-03-17T02:34:56.682Z,-3.50
2018-03-17T02:36:39.904Z,-3.50
2018-03-17T02:38:23.413Z,-3.50
2018-03-17T02:40:06.531Z,-3.60
2018-03-17T02:41:49.745Z,-3.60
2018-03-17T02:43:32.884Z,-3.60
2018-03-17T02:45:15.999Z,-3.70
2018-03-17T02:46:59.214Z,-3.70
2018-03-17T02:48:42.431Z,-3.70
2018-03-17T02:50:25.540Z,-3.70
2018-03-17T02:52:08.667Z,-3.70
2018-03-17T02:53:51.817Z,-3.70
2018-03-17T02:55:34.938Z,-3.60
2018-03-17T02:57:18.125Z,-3.60
2018-03-17T02:59:02.009Z,-3.60
2018-03-17T03:00:45.181Z,-3.70
2018-03-17T03:02:29.064Z,-3.70
2018-03-17T03:04:12.591Z,-3.70
2018-03-17T03:05:55.737Z,-3.70
2018-03-17T03:07:38.878Z,-3.70
2018-03-17T03:09:22.781Z,-3.70
2018-03-17T03:11:05.880Z,-3.70
2018-03-17T03:12:49.025Z,-3.70
2018-03-17T03:14:32.239Z,-3.70
2018-03-17T03:16:15.378Z,-3.70
2018-03-17T03:17:59.280Z,-3.80
2018-03-17T03:19:42.407Z,-3.90
2018-03-17T03:21:25.523Z,-3.80
2018-03-17T03:23:08.641Z,-3.90
2018-03-17T03:24:51.774Z,-3.80
2018-03-17T03:26:35.655Z,-3.80
2018-03-17T03:28:18.789Z,-3.80
2018-03-17T03:30:01.917Z,-3.80
2018-03-17T03:31:45.025Z,-3.80
2018-03-17T03:33:28.141Z,-3.80
2018-03-17T03:35:11.398Z,-3.80
2018-03-17T03:36:54.484Z,-3.80
2018-03-17T03:38:37.605Z,-3.80
2018-03-17T03:40:20.753Z,-3.80
2018-03-17T03:42:04.628Z,-3.90
2018-03-17T03:43:47.751Z,-3.90
2018-03-17T03:45:30.911Z,-3.80
2018-03-17T03:47:14.829Z,-3.90
2018-03-17T03:48:57.942Z,-3.90
2018-03-17T03:50:41.070Z,-3.90
2018-03-17T03:52:24.201Z,-3.90
2018-03-17T03:54:08.107Z,-3.80
2018-03-17T03:55:51.225Z,-3.80
2018-03-17T03:57:34.341Z,-3.80
2018-03-17T03:59:17.475Z,-3.80
2018-03-17T04:01:00.590Z,-3.70
2018-03-17T04:02:44.472Z,-3.80
2018-03-17T04:04:27.645Z,-3.80
2018-03-17T04:06:11.548Z,-3.80
2018-03-17T04:07:54.675Z,-3.80
2018-03-17T04:09:37.809Z,-3.80
2018-03-17T04:11:20.923Z,-3.80
2018-03-17T04:13:04.041Z,-3.80
2018-03-17T04:14:47.161Z,-3.80
2018-03-17T04:16:31.044Z,-3.80
2018-03-17T04:18:14.169Z,-3.80
2018-03-17T04:19:57.430Z,-3.80
2018-03-17T04:21:41.319Z,-3.80
2018-03-17T04:23:24.445Z,-3.80
2018-03-17T04:25:07.561Z,-3.80
2018-03-17T04:26:50.672Z,-3.80
2018-03-17T04:28:33.795Z,-3.80
2018-03-17T04:30:16.917Z,-3.90
2018-03-17T04:32:00.034Z,-4.00
2018-03-17T04:33:43.170Z,-4.00
2018-03-17T04:35:26.337Z,-4.00
2018-03-17T04:37:09.486Z,-4.00
2018-03-17T04:38:52.609Z,-3.90
2018-03-17T04:40:35.744Z,-4.00
2018-03-17T04:42:19.624Z,-4.00
2018-03-17T04:44:02.793Z,-4.00
2018-03-17T04:45:45.995Z,-4.00
2018-03-17T04:47:30.651Z,-4.00
2018-03-17T04:49:13.774Z,-4.00
2018-03-17T04:50:56.892Z,-4.00
2018-03-17T04:52:40.089Z,-4.00
2018-03-17T04:54:23.225Z,-4.00
2018-03-17T04:56:06.352Z,-4.00
2018-03-17T04:57:50.224Z,-4.00
2018-03-17T04:59:33.373Z,-4.00
2018-03-17T05:01:16.601Z,-4.00
2018-03-17T05:02:59.616Z,-4.00
2018-03-17T05:04:42.720Z,-4.10
2018-03-17T05:06:25.836Z,-4.10
2018-03-17T05:08:08.942Z,-4.10
2018-03-17T05:09:52.084Z,-4.10
2018-03-17T05:11:36.738Z,-4.20
2018-03-17T05:13:19.869Z,-4.20
2018-03-17T05:15:03.778Z,-4.20
2018-03-17T05:16:46.885Z,-4.20
2018-03-17T05:18:30.005Z,-4.20
2018-03-17T05:20:13.159Z,-4.20
2018-03-17T05:21:57.036Z,-4.20
2018-03-17T05:23:40.190Z,-4.20
2018-03-17T05:25:23.324Z,-4.30
2018-03-17T05:27:07.211Z,-4.20
2018-03-17T05:28:50.319Z,-4.20
2018-03-17T05:30:33.487Z,-4.10
2018-03-17T05:32:17.419Z,-4.20
2018-03-17T05:34:00.621Z,-4.20
2018-03-17T05:35:43.755Z,-4.20
2018-03-17T05:37:27.641Z,-4.20
2018-03-17T05:41:00.304Z,-4.10
2018-03-17T05:42:43.433Z,-4.20
2018-03-17T05:44:26.563Z,-4.20
2018-03-17T05:46:09.734Z,-4.20
2018-03-17T05:47:53.614Z,-4.10
2018-03-17T05:49:36.728Z,-4.10
2018-03-17T05:51:19.891Z,-4.00
2018-03-17T05:53:03.793Z,-3.90
2018-03-17T05:54:46.924Z,-4.00
2018-03-17T05:56:30.049Z,-3.90
2018-03-17T05:58:13.248Z,-3.80
2018-03-17T05:59:56.480Z,-3.80
2018-03-17T06:01:39.606Z,-3.70
2018-03-17T06:03:23.481Z,-3.30
2018-03-17T06:05:06.661Z,-3.30
2018-03-17T06:06:50.561Z,-2.40
2018-03-17T06:08:33.685Z,-2.50
2018-03-17T06:10:16.921Z,-2.20
2018-03-17T06:12:00.052Z,-1.90
2018-03-17T06:13:43.937Z,-0.60
2018-03-17T06:15:27.072Z,-0.60
2018-03-17T06:17:10.188Z,-0.10
2018-03-17T06:18:53.312Z,0.40
2018-03-17T06:20:36.432Z,1.00
2018-03-17T06:22:19.661Z,1.90
2018-03-17T06:24:02.857Z,2.40
2018-03-17T06:25:46.005Z,2.80
2018-03-17T06:27:29.893Z,1.50
2018-03-17T06:29:13.009Z,1.50
2018-03-17T06:30:56.129Z,0.60
2018-03-17T06:32:39.247Z,-0.20
2018-03-17T06:34:22.349Z,-0.70
2018-03-17T06:36:05.492Z,-1.10
2018-03-17T06:37:48.640Z,-1.30
2018-03-17T06:39:31.786Z,-1.40
2018-03-17T06:41:14.938Z,-1.30
2018-03-17T06:42:58.069Z,-1.10
2018-03-17T06:44:41.251Z,-0.70
2018-03-17T06:46:24.375Z,-0.20
2018-03-17T06:48:07.497Z,0.20
2018-03-17T06:49:50.617Z,0.70
2018-03-17T06:51:33.852Z,1.20
2018-03-17T06:53:17.056Z,1.80
2018-03-17T06:55:00.182Z,2.20
2018-03-17T06:56:43.316Z,2.00
2018-03-17T06:58:26.509Z,1.30
2018-03-17T07:00:09.714Z,0.60
2018-03-17T07:01:52.846Z,-0.30
2018-03-17T07:03:36.088Z,-0.80
2018-03-17T07:05:19.972Z,-0.80
2018-03-17T07:07:03.114Z,-0.80
2018-03-17T07:08:46.332Z,-0.80
2018-03-17T07:10:29.465Z,-1.10
2018-03-17T07:12:12.603Z,-1.20
2018-03-17T07:13:56.484Z,-1.40
2018-03-17T07:15:39.616Z,-1.40
2018-03-17T07:17:23.754Z,-1.50
2018-03-17T07:19:06.928Z,-1.60
2018-03-17T07:20:50.106Z,-1.70
2018-03-17T07:22:33.327Z,-1.80
2018-03-17T07:24:16.534Z,-1.90
2018-03-17T07:25:59.671Z,-1.90
2018-03-17T07:27:43.607Z,-1.80
2018-03-17T07:29:27.534Z,-1.80
2018-03-17T07:31:10.761Z,-1.70
2018-03-17T07:32:53.924Z,-1.70
2018-03-17T07:34:37.046Z,-1.60
2018-03-17T07:36:20.178Z,-1.50
2018-03-17T07:38:03.326Z,-1.60
2018-03-17T07:39:47.213Z,-1.50
2018-03-17T07:41:30.378Z,-1.60
2018-03-17T07:43:14.284Z,-1.30
2018-03-17T07:44:57.416Z,-1.30
2018-03-17T07:46:40.555Z,-1.10
2018-03-17T07:48:24.443Z,-0.90
2018-03-17T07:50:07.602Z,-0.90
2018-03-17T07:51:51.491Z,-0.50
2018-03-17T07:53:34.626Z,-0.40
2018-03-17T07:55:17.847Z,0.20
2018-03-17T07:57:01.785Z,1.90
2018-03-17T07:58:44.904Z,1.90
2018-03-17T08:00:28.082Z,3.20
2018-03-17T08:02:11.199Z,3.50
2018-03-17T08:03:54.312Z,4.80
2018-03-17T08:05:37.436Z,6.10
2018-03-17T08:07:20.588Z,6.90
2018-03-17T08:09:03.734Z,7.20
2018-03-17T08:10:46.854Z,7.00
2018-03-17T08:12:30.745Z,7.20
2018-03-17T08:14:13.862Z,7.20
2018-03-17T08:15:56.983Z,7.90
2018-03-17T08:17:40.206Z,8.70
2018-03-17T08:19:23.317Z,8.90
2018-03-17T08:21:06.446Z,9.20
2018-03-17T08:22:50.314Z,7.50
2018-03-17T08:24:33.787Z,7.50
2018-03-17T08:26:16.934Z,6.70
2018-03-17T08:28:00.824Z,5.20
2018-03-17T08:29:43.953Z,5.20
2018-03-17T08:31:27.064Z,4.40
2018-03-17T08:33:10.217Z,4.30
2018-03-17T08:34:54.124Z,3.70
2018-03-17T08:36:37.276Z,3.70
2018-03-17T08:38:21.182Z,2.60
2018-03-17T08:40:04.293Z,2.60
2018-03-17T08:41:47.408Z,2.20
2018-03-17T08:43:30.628Z,2.00
2018-03-17T08:45:13.740Z,1.90
2018-03-17T08:46:56.900Z,1.80
2018-03-17T08:48:40.780Z,1.30
2018-03-17T08:50:23.892Z,1.20
2018-03-17T08:52:07.007Z,1.10
2018-03-17T08:53:50.166Z,1.00
2018-03-17T08:55:34.037Z,1.00
2018-03-17T08:57:17.211Z,1.00
2018-03-17T08:59:00.327Z,1.30
2018-03-17T09:00:43.559Z,1.40
2018-03-17T09:02:27.534Z,2.20
2018-03-17T09:04:12.074Z,2.20
2018-03-17T09:05:55.264Z,2.60
2018-03-17T09:07:39.154Z,2.40
2018-03-17T09:09:22.273Z,2.40
2018-03-17T09:11:05.436Z,2.50
2018-03-17T09:12:49.364Z,3.00
2018-03-17T09:14:33.238Z,3.60
2018-03-17T09:16:16.343Z,3.60
2018-03-17T09:17:59.469Z,4.20
2018-03-17T09:19:42.665Z,4.30
2018-03-17T09:21:25.812Z,4.60
2018-03-17T09:23:08.984Z,5.60
2018-03-17T09:24:52.888Z,7.60
2018-03-17T09:26:36.010Z,7.60
2018-03-17T09:28:19.210Z,8.40
2018-03-17T09:30:02.318Z,8.90
2018-03-17T09:31:45.446Z,9.40
2018-03-17T09:33:28.573Z,9.60
2018-03-17T09:35:11.680Z,9.40
2018-03-17T09:36:54.811Z,8.90
2018-03-17T09:38:38.064Z,9.10
2018-03-17T09:40:22.054Z,8.20
2018-03-17T09:42:05.200Z,8.20
2018-03-17T09:43:49.103Z,6.80
2018-03-17T09:45:32.224Z,6.70
2018-03-17T09:47:15.346Z,6.00
2018-03-17T09:48:58.565Z,5.10
2018-03-17T09:50:41.685Z,4.80
2018-03-17T09:52:24.799Z,4.60
2018-03-17T09:54:08.098Z,4.20
2018-03-17T09:55:51.228Z,3.90
2018-03-17T09:57:34.469Z,3.70
2018-03-17T09:59:17.584Z,4.00
2018-03-17T10:01:00.684Z,4.70
2018-03-17T10:02:43.859Z,5.10
2018-03-17T10:04:27.025Z,5.40
2018-03-17T10:06:10.132Z,5.30
2018-03-17T10:07:53.257Z,4.90
2018-03-17T10:09:36.395Z,5.10
2018-03-17T10:11:20.300Z,6.20
2018-03-17T10:13:03.442Z,6.20
2018-03-17T10:14:47.313Z,5.20
2018-03-17T10:16:30.483Z,5.10
2018-03-17T10:18:13.620Z,5.90
2018-03-17T10:19:57.496Z,8.00
2018-03-17T10:21:40.657Z,8.00
2018-03-17T10:23:24.587Z,6.20
2018-03-17T10:25:07.699Z,6.20
2018-03-17T10:26:50.828Z,6.70
2018-03-17T10:28:34.042Z,7.20
2018-03-17T10:30:17.320Z,7.70
2018-03-17T10:32:01.176Z,9.20
2018-03-17T10:33:44.410Z,9.20
2018-03-17T10:35:27.544Z,10.30
2018-03-17T10:37:11.489Z,10.90
2018-03-17T10:38:54.651Z,10.90
2018-03-17T10:40:37.773Z,10.00
2018-03-17T10:42:20.885Z,8.40
2018-03-17T10:44:03.993Z,7.30
2018-03-17T10:45:47.108Z,6.80
2018-03-17T10:47:30.271Z,6.50
2018-03-17T10:49:14.168Z,6.60
2018-03-17T10:50:57.294Z,6.60
2018-03-17T10:52:40.437Z,7.40
2018-03-17T10:54:23.644Z,7.70
2018-03-17T10:56:06.758Z,7.70
2018-03-17T10:57:49.872Z,7.40
2018-03-17T10:59:33.016Z,7.70
2018-03-17T11:01:20.869Z,9.00
2018-03-17T11:03:04.097Z,9.00
2018-03-17T11:04:47.228Z,9.20
2018-03-17T11:06:30.329Z,8.90
2018-03-17T11:08:13.437Z,7.70
2018-03-17T11:09:56.618Z,6.50
2018-03-17T11:11:39.797Z,5.80
2018-03-17T11:13:23.088Z,5.30
2018-03-17T11:15:06.248Z,5.30
2018-03-17T11:16:49.415Z,4.90
2018-03-17T11:18:32.546Z,4.70
2018-03-17T11:20:15.668Z,4.70
2018-03-17T11:21:58.785Z,4.70
2018-03-17T11:23:41.901Z,4.80
2018-03-17T11:25:25.044Z,5.30
2018-03-17T11:27:08.940Z,5.90
2018-03-17T11:28:52.106Z,5.90
2018-03-17T11:30:35.252Z,6.00
2018-03-17T11:32:19.131Z,4.90
2018-03-17T11:34:02.399Z,4.90
2018-03-17T11:35:46.290Z,4.40
2018-03-17T11:37:29.439Z,4.40
2018-03-17T11:39:13.254Z,4.20
2018-03-17T11:40:56.365Z,4.10
2018-03-17T11:42:39.529Z,3.90
2018-03-17T11:44:23.417Z,4.00
2018-03-17T11:46:06.539Z,4.00
2018-03-17T11:47:49.651Z,4.20
2018-03-17T11:49:32.872Z,4.40
2018-03-17T11:51:15.995Z,4.60
2018-03-17T11:52:59.209Z,5.10
2018-03-17T11:54:42.474Z,5.20
2018-03-17T11:56:26.361Z,5.10
2018-03-17T11:58:09.493Z,5.10
2018-03-17T11:59:52.611Z,5.60
2018-03-17T12:01:35.836Z,5.60
2018-03-17T12:03:19.775Z,5.30
2018-03-17T12:05:03.689Z,5.60
2018-03-17T12:06:46.814Z,5.50
2018-03-17T12:08:29.966Z,6.20
2018-03-17T12:10:13.097Z,5.60
2018-03-17T12:11:56.242Z,5.30
2018-03-17T12:13:39.379Z,5.30
2018-03-17T12:15:22.507Z,5.00
2018-03-17T12:17:05.726Z,5.10
2018-03-17T12:18:49.598Z,4.90
2018-03-17T12:20:32.784Z,4.90
2018-03-17T12:22:16.708Z,5.50
2018-03-17T12:23:59.834Z,7.00
2018-03-17T12:25:43.851Z,8.70
2018-03-17T12:27:26.971Z,8.60
2018-03-17T12:29:10.086Z,8.40
2018-03-17T12:30:53.222Z,7.90
2018-03-17T12:32:37.115Z,7.50
2018-03-17T12:34:20.235Z,7.50
2018-03-17T12:36:03.351Z,7.10
2018-03-17T12:37:46.474Z,7.00
2018-03-17T12:39:29.592Z,7.00
2018-03-17T12:41:12.697Z,6.90
2018-03-17T12:42:55.802Z,6.40
2018-03-17T12:44:38.941Z,6.10
2018-03-17T12:46:22.168Z,6.00
2018-03-17T12:48:05.378Z,5.70
2018-03-17T12:49:48.504Z,5.20
2018-03-17T12:51:31.720Z,4.80
2018-03-17T12:53:14.856Z,4.60
2018-03-17T12:54:58.745Z,4.30
2018-03-17T12:56:41.884Z,4.20
2018-03-17T12:58:25.121Z,4.10
2018-03-17T13:00:08.258Z,3.90
2018-03-17T13:01:52.177Z,3.40
2018-03-17T13:03:36.093Z,3.40
2018-03-17T13:05:19.325Z,3.40
2018-03-17T13:07:02.541Z,3.40
2018-03-17T13:08:45.652Z,3.40
2018-03-17T13:10:28.805Z,3.30
2018-03-17T13:12:12.110Z,3.40
2018-03-17T13:13:56.026Z,3.00
2018-03-17T13:15:39.219Z,3.00
2018-03-17T13:17:22.373Z,2.90
2018-03-17T13:19:05.584Z,2.80
2018-03-17T13:20:48.741Z,2.70
2018-03-17T13:22:49.746Z,2.80
2018-03-17T13:24:33.664Z,2.70
2018-03-17T13:26:16.794Z,2.70
2018-03-17T13:28:17.938Z,2.80
2018-03-17T13:30:01.837Z,3.00
2018-03-17T13:31:44.958Z,2.90
2018-03-17T13:33:28.105Z,2.90
2018-03-17T13:35:11.222Z,3.00
2018-03-17T13:37:12.159Z,3.00
2018-03-17T13:38:55.288Z,2.90
2018-03-17T13:40:42.957Z,2.90
2018-03-17T13:42:26.140Z,2.90
2018-03-17T13:44:10.059Z,2.70
2018-03-17T13:45:53.485Z,2.60
2018-03-17T13:47:36.591Z,2.30
2018-03-17T13:49:19.708Z,2.10
2018-03-17T13:51:02.841Z,1.90
2018-03-17T13:52:46.751Z,1.70
2018-03-17T13:54:29.884Z,1.70
2018-03-17T13:56:13.108Z,1.50
2018-03-17T13:57:56.642Z,1.20
2018-03-17T13:59:40.549Z,0.80
2018-03-17T14:01:23.690Z,0.80
2018-03-17T14:03:07.567Z,0.80
2018-03-17T14:04:50.745Z,0.80
2018-03-17T14:06:34.646Z,1.00
2018-03-17T14:08:17.760Z,1.00
2018-03-17T14:11:50.282Z,1.00
2018-03-17T14:13:34.172Z,0.90
2018-03-17T14:15:17.352Z,0.80
2018-03-17T14:17:01.296Z,1.10
2018-03-17T14:18:44.514Z,1.10
2018-03-17T14:20:27.633Z,1.10
2018-03-17T14:22:10.781Z,1.00
2018-03-17T14:23:53.882Z,0.80
2018-03-17T14:25:37.006Z,0.60
2018-03-17T14:27:20.414Z,0.60
2018-03-17T14:29:03.697Z,0.50
2018-03-17T14:30:46.838Z,0.40
2018-03-17T14:32:29.984Z,0.30
2018-03-17T14:34:13.117Z,0.30
2018-03-17T14:35:56.247Z,0.40
2018-03-17T14:37:39.674Z,0.40
2018-03-17T14:39:22.909Z,0.40
2018-03-17T14:41:06.846Z,0.50
2018-03-17T14:42:50.009Z,0.50
2018-03-17T14:44:33.125Z,0.50
2018-03-17T14:46:16.308Z,0.40
2018-03-17T14:48:00.311Z,0.30
2018-03-17T14:49:43.467Z,0.30
2018-03-17T14:51:27.363Z,0.20
2018-03-17T14:53:10.532Z,0.10
2018-03-17T14:54:54.419Z,-0.10
2018-03-17T14:56:37.543Z,-0.10
2018-03-17T14:58:20.981Z,-0.10
2018-03-17T15:00:04.215Z,-0.10
2018-03-17T15:01:48.159Z,-0.10
2018-03-17T15:03:32.325Z,-0.20
2018-03-17T15:05:15.492Z,-0.20
2018-03-17T15:06:58.737Z,-0.20
2018-03-17T15:08:42.644Z,-0.30
2018-03-17T15:10:25.769Z,-0.30
2018-03-17T15:12:08.903Z,-0.30
2018-03-17T15:13:52.806Z,-0.10
2018-03-17T15:15:35.929Z,-0.10
2018-03-17T15:17:19.178Z,-0.10
2018-03-17T15:19:03.129Z,0.10
2018-03-17T15:20:47.053Z,0.20
2018-03-17T15:22:30.978Z,0.20
2018-03-17T15:24:14.929Z,0.10
2018-03-17T15:25:58.897Z,0.00
2018-03-17T15:27:42.029Z,0.00
2018-03-17T15:29:25.167Z,-0.20
2018-03-17T15:31:08.308Z,-0.40
2018-03-17T15:32:52.206Z,-0.50
2018-03-17T15:34:35.361Z,-0.50
2018-03-17T15:36:19.246Z,-0.50
2018-03-17T15:38:02.402Z,-0.50
2018-03-17T15:39:45.560Z,-0.50
2018-03-17T15:41:28.697Z,-0.50
2018-03-17T15:43:11.826Z,-0.40
2018-03-17T15:44:54.973Z,-0.40
2018-03-17T15:46:38.923Z,-0.40
2018-03-17T15:48:22.842Z,-0.50
2018-03-17T15:50:06.022Z,-0.50
2018-03-17T15:51:49.168Z,-0.50
2018-03-17T15:53:32.379Z,-0.50
2018-03-17T15:55:15.525Z,-0.60
2018-03-17T15:56:59.424Z,-0.60
2018-03-17T15:58:42.561Z,-0.70
2018-03-17T16:00:25.798Z,-0.60
2018-03-17T16:02:09.718Z,-0.70
2018-03-17T16:03:52.832Z,-0.70
2018-03-17T16:05:36.016Z,-0.70
2018-03-17T16:07:19.166Z,-0.70
2018-03-17T16:09:03.072Z,-0.80
2018-03-17T16:10:46.217Z,-0.90
2018-03-17T16:12:29.353Z,-0.80
2018-03-17T16:14:13.233Z,-0.80
2018-03-17T16:15:56.390Z,-0.80
2018-03-17T16:17:39.535Z,-0.80
2018-03-17T16:19:22.748Z,-0.90
2018-03-17T16:21:05.941Z,-0.90
2018-03-17T16:22:49.071Z,-0.90
2018-03-17T16:24:32.960Z,-0.90
2018-03-17T16:26:16.192Z,-1.00
2018-03-17T16:27:59.334Z,-0.90
2018-03-17T16:29:43.239Z,-0.90
2018-03-17T16:31:26.904Z,-1.00
2018-03-17T16:33:10.794Z,-1.00
2018-03-17T16:34:53.904Z,-1.00
2018-03-17T16:36:37.058Z,-1.00
2018-03-17T16:38:20.184Z,-1.00
2018-03-17T16:40:04.086Z,-1.00
2018-03-17T16:41:47.369Z,-1.10
2018-03-17T16:43:30.537Z,-1.00
2018-03-17T16:45:13.865Z,-1.10
2018-03-17T16:46:57.001Z,-1.10
2018-03-17T16:48:41.036Z,-1.10
2018-03-17T16:50:24.984Z,-1.20
2018-03-17T16:52:08.143Z,-1.20
2018-03-17T16:53:51.340Z,-1.20
2018-03-17T16:55:34.489Z,-1.20
2018-03-17T16:57:17.742Z,-1.20
2018-03-17T16:59:01.677Z,-1.30
2018-03-17T17:00:45.606Z,-1.20
2018-03-17T17:02:29.502Z,-1.30
2018-03-17T17:04:12.619Z,-1.30
2018-03-17T17:05:55.734Z,-1.30
2018-03-17T17:07:38.888Z,-1.30
2018-03-17T17:09:22.007Z,-1.30
2018-03-17T17:11:05.890Z,-1.30
2018-03-17T17:12:49.031Z,-1.30
2018-03-17T17:14:32.173Z,-1.30
2018-03-17T17:16:15.296Z,-1.40
2018-03-17T17:17:59.194Z,-1.40
2018-03-17T17:19:42.318Z,-1.40
2018-03-17T17:21:25.540Z,-1.40
2018-03-17T17:23:08.680Z,-1.40
2018-03-17T17:24:52.574Z,-1.40
2018-03-17T17:26:35.738Z,-1.50
2018-03-17T17:28:19.668Z,-1.50
2018-03-17T17:30:03.605Z,-1.50
2018-03-17T17:31:47.554Z,-1.50
2018-03-17T17:33:30.757Z,-1.50
2018-03-17T17:35:14.644Z,-1.50
2018-03-17T17:36:57.769Z,-1.50
2018-03-17T17:38:40.930Z,-1.50
2018-03-17T17:40:24.829Z,-1.50
2018-03-17T17:42:08.065Z,-1.50
2018-03-17T17:43:51.209Z,-1.50
2018-03-17T17:45:35.114Z,-1.50
2018-03-17T17:47:18.253Z,-1.50
2018-03-17T17:49:02.173Z,-1.50
2018-03-17T17:50:46.107Z,-1.50
2018-03-17T17:52:29.330Z,-1.50
2018-03-17T17:54:12.515Z,-1.50
2018-03-17T17:55:55.668Z,-1.50
2018-03-17T17:57:39.585Z,-1.50
2018-03-17T17:59:22.739Z,-1.60
2018-03-17T18:01:05.925Z,-1.60
2018-03-17T18:02:49.078Z,-1.60
2018-03-17T18:04:32.375Z,-1.60
2018-03-17T18:06:16.304Z,-1.60
2018-03-17T18:07:59.458Z,-1.60
2018-03-17T18:09:42.626Z,-1.60
2018-03-17T18:11:25.780Z,-1.60
2018-03-17T18:13:08.978Z,-1.60
2018-03-17T18:14:52.896Z,-1.60
2018-03-17T18:16:36.039Z,-1.60
2018-03-17T18:18:19.939Z,-1.60
2018-03-17T18:20:03.179Z,-1.60
2018-03-17T18:21:46.321Z,-1.50
2018-03-17T18:23:30.234Z,-1.60
2018-03-17T18:25:14.149Z,-1.60
2018-03-17T18:26:57.335Z,-1.60
2018-03-17T18:28:40.506Z,-1.60
2018-03-17T18:30:24.464Z,-1.60
2018-03-17T18:32:07.766Z,-1.60
2018-03-17T18:33:51.696Z,-1.60
2018-03-17T18:35:35.584Z,-1.60
2018-03-17T18:37:18.708Z,-1.60
2018-03-17T18:39:01.865Z,-1.60
2018-03-17T18:40:45.811Z,-1.60
2018-03-17T18:42:29.723Z,-1.60
2018-03-17T18:44:13.639Z,-1.60
2018-03-17T18:45:56.774Z,-1.60
2018-03-17T18:47:39.899Z,-1.60
2018-03-17T18:49:23.799Z,-1.60
2018-03-17T18:51:11.869Z,-1.70
2018-03-17T18:52:54.986Z,-1.60
2018-03-17T18:54:38.198Z,-1.60
2018-03-17T18:56:21.424Z,-1.60
2018-03-17T18:58:05.332Z,-1.60
2018-03-17T18:59:48.506Z,-1.60
2018-03-17T19:01:31.639Z,-1.60
2018-03-17T19:03:14.772Z,-1.60
2018-03-17T19:04:57.926Z,-1.60
2018-03-17T19:06:41.060Z,-1.60
2018-03-17T19:08:24.957Z,-1.60
2018-03-17T19:10:08.106Z,-1.60
2018-03-17T19:11:52.009Z,-1.60
2018-03-17T19:13:35.142Z,-1.70
2018-03-17T19:15:19.028Z,-1.70
2018-03-17T19:17:02.198Z,-1.70
2018-03-17T19:18:46.423Z,-1.60
2018-03-17T19:20:29.544Z,-1.70
2018-03-17T19:22:12.773Z,-1.60
2018-03-17T19:23:55.989Z,-1.60
2018-03-17T19:25:39.111Z,-1.60
2018-03-17T19:27:23.006Z,-1.60
2018-03-17T19:29:06.343Z,-1.60
2018-03-17T19:30:50.305Z,-1.60
2018-03-17T19:32:34.275Z,-1.60
2018-03-17T19:34:18.169Z,-1.60
2018-03-17T19:36:01.298Z,-1.70
2018-03-17T19:37:45.173Z,-1.70
2018-03-17T19:39:28.580Z,-1.60
2018-03-17T19:41:11.709Z,-1.70
2018-03-17T19:42:54.843Z,-1.60
2018-03-17T19:44:38.299Z,-1.60
2018-03-17T19:46:21.431Z,-1.70
2018-03-17T19:48:05.322Z,-1.70
2018-03-17T19:49:48.461Z,-1.70
2018-03-17T19:51:31.658Z,-1.60
2018-03-17T19:53:14.791Z,-1.70
2018-03-17T19:54:58.128Z,-1.70
2018-03-17T19:56:42.004Z,-1.60
2018-03-17T19:58:25.133Z,-1.70
2018-03-17T20:00:08.324Z,-1.70
2018-03-17T20:01:51.468Z,-1.70
2018-03-17T20:03:34.617Z,-1.70
2018-03-17T20:05:17.800Z,-1.80
2018-03-17T20:07:00.970Z,-1.70
2018-03-17T20:08:45.008Z,-1.70
2018-03-17T20:10:29.037Z,-1.70
2018-03-17T20:12:12.928Z,-1.80
2018-03-17T20:13:56.047Z,-1.80
2018-03-17T20:15:39.173Z,-1.80
2018-03-17T20:17:22.311Z,-1.80
2018-03-17T20:19:05.851Z,-1.80
2018-03-17T20:20:49.045Z,-1.80
2018-03-17T20:22:32.167Z,-1.80
2018-03-17T20:24:15.378Z,-1.80
2018-03-17T20:25:58.708Z,-1.80
2018-03-17T20:27:42.637Z,-1.90
2018-03-17T20:29:25.747Z,-1.80
2018-03-17T20:31:09.002Z,-1.80
2018-03-17T20:32:52.940Z,-1.90
2018-03-17T20:34:36.851Z,-1.80
2018-03-17T20:36:20.063Z,-1.90
2018-03-17T20:38:03.200Z,-1.90
2018-03-17T20:39:47.090Z,-1.90
2018-03-17T20:41:30.225Z,-1.90
2018-03-17T20:43:13.341Z,-1.90
2018-03-17T20:44:56.467Z,-1.90
2018-03-17T20:46:39.628Z,-1.90
2018-03-17T20:48:22.977Z,-1.90
2018-03-17T20:50:06.203Z,-1.90
2018-03-17T20:51:49.356Z,-2.00
2018-03-17T20:53:33.248Z,-2.00
2018-03-17T20:55:16.386Z,-2.00
2018-03-17T20:56:59.510Z,-2.00
2018-03-17T20:58:42.847Z,-2.00
2018-03-17T21:00:26.782Z,-2.00
2018-03-17T21:02:10.713Z,-2.00
2018-03-17T21:03:53.853Z,-2.00
2018-03-17T21:05:37.046Z,-2.10
2018-03-17T21:07:21.079Z,-2.10
2018-03-17T21:09:04.219Z,-2.10
2018-03-17T21:10:47.425Z,-2.10
2018-03-17T21:12:31.320Z,-2.10
2018-03-17T21:14:14.452Z,-2.20
2018-03-17T21:15:57.705Z,-2.20
2018-03-17T21:17:41.741Z,-2.20
2018-03-17T21:19:25.671Z,-2.20
2018-03-17T21:21:09.612Z,-2.20
2018-03-17T21:22:53.623Z,-2.20
2018-03-17T21:24:36.833Z,-2.20
2018-03-17T21:26:21.490Z,-2.30
2018-03-17T21:28:04.603Z,-2.30
2018-03-17T21:29:47.889Z,-2.30
2018-03-17T21:31:31.777Z,-2.30
2018-03-17T21:33:14.981Z,-2.30
2018-03-17T21:34:58.235Z,-2.30
2018-03-17T21:36:42.133Z,-2.40
2018-03-17T21:38:26.801Z,-2.40
2018-03-17T21:40:10.006Z,-2.40
2018-03-17T21:41:53.147Z,-2.40
2018-03-17T21:43:37.046Z,-2.40
2018-03-17T21:45:20.149Z,-2.40
2018-03-17T21:47:03.369Z,-2.40
2018-03-17T21:48:46.502Z,-2.40
2018-03-17T21:50:29.638Z,-2.50
2018-03-17T21:52:12.788Z,-2.50
2018-03-17T21:53:55.938Z,-2.50
2018-03-17T21:55:39.092Z,-2.60
2018-03-17T21:57:23.005Z,-2.60
2018-03-17T21:59:06.220Z,-2.60
2018-03-17T22:00:49.356Z,-2.70
2018-03-17T22:02:32.551Z,-2.70
2018-03-17T22:04:16.549Z,-2.70
2018-03-17T22:05:59.837Z,-2.70
2018-03-17T22:07:43.781Z,-2.80
2018-03-17T22:09:26.897Z,-2.80
2018-03-17T22:11:10.791Z,-2.80
2018-03-17T22:12:54.053Z,-2.80
2018-03-17T22:14:37.245Z,-2.80
2018-03-17T22:16:20.458Z,-2.80
2018-03-17T22:18:03.609Z,-2.90
2018-03-17T22:19:47.490Z,-2.90
2018-03-17T22:21:30.609Z,-2.90
2018-03-17T22:23:13.789Z,-2.90
2018-03-17T22:24:56.908Z,-2.80
2018-03-17T22:26:40.140Z,-2.90
2018-03-17T22:28:23.241Z,-2.90
2018-03-17T22:30:06.640Z,-2.90
2018-03-17T22:31:49.781Z,-2.90